Time;durP1;ratioP1;P1;durP2;ratioP2;P2;SDS_P1;SDS_P2;PMS_P1;PMS_P2;Temp;Humidity;BMP_temperature;BMP_pressure;BME280_temperature;BME280_humidity;BME280_pressure;Samples;Min_cycle;Max_cycle;Signal;HPM_P1;HPM_P2
2024/01/27 06:00:25;;;;;;;17.73;7.50;;;;;;;;;;5907841;23;20407;-79
2024/01/27 06:02:51;;;;;;;19.93;7.57;;;;;;;;;;4973410;29;20459;-79
2024/01/27 06:05:17;;;;;;;16.93;7.80;;;;;;;;;;4972178;29;20421;-78
2024/01/27 06:07:45;;;;;;;17.20;7.53;;;;;;;;;;4967068;29;20441;-78
2024/01/27 06:10:11;;;;;;;21.10;10.03;;;;;;;;;;4968937;28;20496;-78
2024/01/27 06:12:39;;;;;;;16.20;7.33;;;;;;;;;;4968847;29;20456;-78
2024/01/27 06:15:06;;;;;;;20.10;9.00;;;;;;;;;;4971425;29;20456;-78
2024/01/27 06:17:31;;;;;;;11.20;6.97;;;;;;;;;;4961435;29;20912;-78
2024/01/27 06:19:57;;;;;;;12.13;6.60;;;;;;;;;;4960000;29;20516;-78
2024/01/27 06:22:23;;;;;;;16.47;7.93;;;;;;;;;;4963689;28;21002;-78
2024/01/27 06:24:49;;;;;;;17.70;8.67;;;;;;;;;;4961738;29;20480;-78
2024/01/27 06:27:15;;;;;;;25.23;8.60;;;;;;;;;;4960754;29;20923;-78
2024/01/27 06:29:42;;;;;;;18.17;6.97;;;;;;;;;;4961456;29;20441;-78
2024/01/27 06:32:08;;;;;;;22.23;7.80;;;;;;;;;;4968157;28;20460;-77
2024/01/27 06:34:34;;;;;;;17.10;6.97;;;;;;;;;;4966414;29;20766;-77
2024/01/27 06:36:59;;;;;;;14.97;7.30;;;;;;;;;;4963123;29;20404;-78
2024/01/27 06:39:25;;;;;;;17.83;7.87;;;;;;;;;;4962918;29;20918;-77
2024/01/27 06:41:52;;;;;;;23.97;8.17;;;;;;;;;;4957999;28;20452;-77
2024/01/27 06:44:17;;;;;;;21.27;7.50;;;;;;;;;;4960698;29;20413;-78
2024/01/27 06:46:45;;;;;;;14.90;6.93;;;;;;;;;;4959949;28;20470;-77
2024/01/27 06:49:11;;;;;;;21.63;7.40;;;;;;;;;;4955568;29;20827;-75
2024/01/27 06:51:37;;;;;;;18.03;9.00;;;;;;;;;;4958014;28;20456;-74
2024/01/27 06:54:03;;;;;;;25.53;9.60;;;;;;;;;;4955733;28;20440;-75
2024/01/27 06:56:29;;;;;;;19.03;9.40;;;;;;;;;;4956254;28;20428;-73
2024/01/27 06:58:55;;;;;;;21.63;8.90;;;;;;;;;;4954438;29;20429;-76
2024/01/27 07:01:21;;;;;;;17.13;8.90;;;;;;;;;;4955856;29;20962;-74
2024/01/27 07:03:47;;;;;;;17.93;8.70;;;;;;;;;;4939322;29;20456;-72
2024/01/27 07:06:13;;;;;;;15.50;8.10;;;;;;;;;;4955077;29;20748;-73
2024/01/27 07:08:39;;;;;;;26.90;8.73;;;;;;;;;;4955280;29;20964;-76
2024/01/27 07:11:05;;;;;;;18.80;8.53;;;;;;;;;;4960528;29;20502;-77
2024/01/27 07:13:31;;;;;;;18.50;9.37;;;;;;;;;;4960065;28;20528;-78
2024/01/27 07:15:57;;;;;;;18.10;8.03;;;;;;;;;;4962909;28;20433;-77
2024/01/27 07:18:24;;;;;;;20.00;7.80;;;;;;;;;;4973941;28;20412;-76
2024/01/27 07:20:51;;;;;;;13.23;7.30;;;;;;;;;;4974276;28;20454;-78
2024/01/27 07:23:17;;;;;;;26.60;8.20;;;;;;;;;;4961653;28;20413;-78
2024/01/27 07:25:43;;;;;;;17.57;8.07;;;;;;;;;;4976444;28;20409;-77
2024/01/27 07:28:09;;;;;;;17.30;8.20;;;;;;;;;;4976685;29;20429;-77
2024/01/27 07:30:35;;;;;;;20.00;8.50;;;;;;;;;;4970807;28;20431;-77
2024/01/27 07:33:01;;;;;;;18.03;7.67;;;;;;;;;;4963211;29;20468;-78
2024/01/27 07:35:27;;;;;;;11.87;7.23;;;;;;;;;;4960367;29;20897;-78
2024/01/27 07:37:53;;;;;;;18.70;7.67;;;;;;;;;;4962712;29;20884;-79
2024/01/27 07:40:19;;;;;;;21.70;8.20;;;;;;;;;;4964262;28;20409;-79
2024/01/27 07:42:45;;;;;;;19.00;8.87;;;;;;;;;;4965173;28;20417;-78
2024/01/27 07:45:11;;;;;;;16.60;8.27;;;;;;;;;;4967630;29;20506;-78
2024/01/27 07:47:38;;;;;;;17.20;7.97;;;;;;;;;;4974536;29;20869;-76
2024/01/27 07:50:04;;;;;;;19.97;8.07;;;;;;;;;;4972201;28;20440;-78
2024/01/27 07:52:30;;;;;;;16.70;7.90;;;;;;;;;;4976628;28;20475;-77
2024/01/27 07:54:56;;;;;;;21.80;6.93;;;;;;;;;;4977769;29;20421;-77
2024/01/27 07:57:22;;;;;;;13.93;6.77;;;;;;;;;;4975109;28;20437;-78
2024/01/27 07:59:48;;;;;;;25.53;8.27;;;;;;;;;;4978516;28;20428;-77
2024/01/27 08:02:14;;;;;;;15.33;8.43;;;;;;;;;;4979144;28;20488;-77
2024/01/27 08:04:40;;;;;;;21.20;7.43;;;;;;;;;;4979619;28;20413;-78
2024/01/27 08:07:09;;;;;;;17.10;8.20;;;;;;;;;;4978342;29;20445;-78
2024/01/27 08:09:35;;;;;;;13.37;7.83;;;;;;;;;;4978683;28;20496;-78
2024/01/27 08:12:01;;;;;;;14.50;7.83;;;;;;;;;;4978979;28;20500;-78
2024/01/27 08:14:29;;;;;;;14.33;8.27;;;;;;;;;;4978985;28;20492;-78
2024/01/27 08:16:56;;;;;;;16.10;7.17;;;;;;;;;;4979161;28;20409;-78
2024/01/27 08:19:21;;;;;;;18.40;7.97;;;;;;;;;;4979367;29;20429;-78
2024/01/27 08:21:48;;;;;;;16.33;7.50;;;;;;;;;;4979007;28;20467;-78
2024/01/27 08:24:14;;;;;;;19.80;7.33;;;;;;;;;;4979011;29;20492;-79
2024/01/27 08:26:42;;;;;;;17.20;7.10;;;;;;;;;;4980012;28;20484;-79
2024/01/27 08:29:08;;;;;;;17.03;7.63;;;;;;;;;;4979026;28;20440;-78
2024/01/27 08:31:34;;;;;;;19.27;8.83;;;;;;;;;;4978979;28;20504;-79
2024/01/27 08:33:59;;;;;;;18.30;7.50;;;;;;;;;;4978781;28;20488;-79
2024/01/27 08:36:25;;;;;;;15.10;7.30;;;;;;;;;;4978912;28;20428;-79
2024/01/27 08:38:51;;;;;;;22.10;7.43;;;;;;;;;;4964379;29;20431;-80
2024/01/27 08:41:17;;;;;;;13.27;6.50;;;;;;;;;;4978405;28;20563;-79
2024/01/27 08:43:43;;;;;;;12.60;6.70;;;;;;;;;;4978652;28;20421;-79
2024/01/27 08:46:11;;;;;;;12.63;7.00;;;;;;;;;;4978508;28;20967;-79
2024/01/27 08:48:38;;;;;;;15.60;6.43;;;;;;;;;;4979511;28;20433;-79
2024/01/27 08:51:04;;;;;;;14.43;7.10;;;;;;;;;;4979487;28;20468;-78
2024/01/27 08:53:30;;;;;;;19.17;7.40;;;;;;;;;;4978771;28;20421;-79
2024/01/27 08:55:56;;;;;;;10.40;6.23;;;;;;;;;;4978067;28;20449;-78
2024/01/27 08:58:22;;;;;;;15.37;6.70;;;;;;;;;;4978778;28;20444;-78
2024/01/27 09:00:48;;;;;;;15.80;6.90;;;;;;;;;;4971423;29;20468;-79
2024/01/27 09:03:14;;;;;;;14.30;6.50;;;;;;;;;;4977805;28;20448;-79
2024/01/27 09:05:43;;;;;;;15.93;7.20;;;;;;;;;;4978359;28;20464;-78
2024/01/27 09:08:09;;;;;;;11.97;6.30;;;;;;;;;;4977127;29;20412;-79
2024/01/27 09:10:35;;;;;;;14.93;6.90;;;;;;;;;;4977731;28;20446;-78
2024/01/27 09:13:02;;;;;;;12.83;6.93;;;;;;;;;;4977372;29;20451;-79
2024/01/27 09:15:28;;;;;;;10.13;5.60;;;;;;;;;;4977501;29;20409;-79
2024/01/27 09:17:54;;;;;;;8.83;6.17;;;;;;;;;;4977978;28;20409;-78
2024/01/27 09:20:20;;;;;;;11.20;6.93;;;;;;;;;;4978502;28;20401;-79
2024/01/27 09:22:47;;;;;;;12.03;6.07;;;;;;;;;;4978181;28;20412;-79
2024/01/27 09:25:13;;;;;;;13.30;6.20;;;;;;;;;;4977475;28;20451;-78
2024/01/27 09:27:39;;;;;;;12.30;5.63;;;;;;;;;;4978567;28;20412;-78
2024/01/27 09:30:06;;;;;;;12.47;5.97;;;;;;;;;;4978069;28;20484;-78
2024/01/27 09:32:32;;;;;;;12.10;6.17;;;;;;;;;;4978838;28;20464;-78
2024/01/27 09:34:58;;;;;;;10.13;5.53;;;;;;;;;;4979203;28;20408;-79
2024/01/27 09:37:24;;;;;;;14.43;6.17;;;;;;;;;;4978184;28;20417;-79
2024/01/27 09:39:50;;;;;;;8.40;5.30;;;;;;;;;;4979003;28;20485;-78
2024/01/27 09:42:19;;;;;;;14.10;6.63;;;;;;;;;;4973262;28;20443;-78
2024/01/27 09:44:48;;;;;;;14.80;6.43;;;;;;;;;;4977212;28;20417;-78
2024/01/27 09:47:14;;;;;;;13.03;5.70;;;;;;;;;;4978264;28;20480;-79
2024/01/27 09:49:43;;;;;;;13.33;5.80;;;;;;;;;;4978084;28;20448;-79
2024/01/27 09:52:09;;;;;;;10.43;5.90;;;;;;;;;;4978641;28;20499;-79
2024/01/27 09:54:36;;;;;;;13.67;6.37;;;;;;;;;;4977531;28;20424;-79
2024/01/27 09:57:02;;;;;;;10.20;6.20;;;;;;;;;;4977580;28;20480;-79
2024/01/27 09:59:29;;;;;;;10.90;5.77;;;;;;;;;;4978668;28;20427;-79
2024/01/27 10:01:56;;;;;;;12.23;5.63;;;;;;;;;;4977552;28;20452;-79
2024/01/27 10:04:23;;;;;;;17.67;6.57;;;;;;;;;;4977598;28;20499;-79
2024/01/27 10:06:50;;;;;;;8.33;5.50;;;;;;;;;;4976900;28;20448;-78
2024/01/27 10:09:17;;;;;;;15.13;6.43;;;;;;;;;;4977337;28;20420;-79
2024/01/27 10:11:45;;;;;;;13.17;6.23;;;;;;;;;;4977582;28;20539;-79
2024/01/27 10:14:11;;;;;;;15.00;5.40;;;;;;;;;;4977981;28;20449;-78
2024/01/27 10:16:45;;;;;;;12.80;6.37;;;;;;;;;;4977497;28;20492;-79
2024/01/27 10:19:18;;;;;;;11.60;6.30;;;;;;;;;;4977198;28;20439;-78
2024/01/27 10:21:45;;;;;;;11.13;5.93;;;;;;;;;;4979647;28;20463;-79
2024/01/27 10:24:12;;;;;;;14.17;5.57;;;;;;;;;;4976629;28;20433;-79
2024/01/27 10:26:38;;;;;;;9.63;6.00;;;;;;;;;;4961525;28;20413;-79
2024/01/27 10:29:04;;;;;;;10.20;4.90;;;;;;;;;;4961286;29;20424;-79
2024/01/27 10:31:30;;;;;;;7.87;5.00;;;;;;;;;;4963209;28;20476;-79
2024/01/27 10:33:57;;;;;;;16.43;6.50;;;;;;;;;;4963797;28;20485;-79
2024/01/27 10:36:23;;;;;;;13.00;5.50;;;;;;;;;;4969504;29;20412;-79
2024/01/27 10:38:49;;;;;;;12.47;5.70;;;;;;;;;;4981810;28;20463;-79
2024/01/27 10:41:26;;;;;;;11.50;4.50;;;;;;;;;;4981406;28;20508;-79
2024/01/27 10:43:52;;;;;;;12.83;5.50;;;;;;;;;;4972248;28;20412;-79
2024/01/27 10:46:22;;;;;;;12.80;5.03;;;;;;;;;;4968217;29;20484;-79
2024/01/27 10:48:52;;;;;;;14.97;5.23;;;;;;;;;;4961427;29;20433;-79
2024/01/27 10:51:23;;;;;;;8.53;4.07;;;;;;;;;;4962153;28;20514;-79
2024/01/27 10:53:50;;;;;;;12.37;4.73;;;;;;;;;;4960588;29;20417;-79
2024/01/27 10:56:16;;;;;;;17.23;5.30;;;;;;;;;;4961390;29;20417;-79
2024/01/27 10:58:42;;;;;;;17.80;5.17;;;;;;;;;;4961047;29;20581;-80
2024/01/27 11:01:11;;;;;;;17.43;5.17;;;;;;;;;;4961628;29;20463;-79
2024/01/27 11:03:43;;;;;;;9.13;4.37;;;;;;;;;;4962496;29;20464;-79
2024/01/27 11:06:09;;;;;;;9.00;4.53;;;;;;;;;;4961128;29;20417;-79
2024/01/27 11:08:35;;;;;;;12.60;5.00;;;;;;;;;;4960702;29;20439;-79
2024/01/27 11:11:02;;;;;;;10.50;4.73;;;;;;;;;;4961087;29;20499;-79
2024/01/27 11:13:29;;;;;;;19.03;4.50;;;;;;;;;;4961300;29;20860;-79
2024/01/27 11:15:55;;;;;;;13.43;4.23;;;;;;;;;;4963876;29;20440;-79
2024/01/27 11:18:21;;;;;;;8.00;4.83;;;;;;;;;;4965098;29;20421;-79
2024/01/27 11:20:47;;;;;;;13.23;5.27;;;;;;;;;;4964741;28;20428;-79
2024/01/27 11:23:16;;;;;;;12.43;5.70;;;;;;;;;;4962753;29;20570;-79
2024/01/27 11:25:42;;;;;;;13.53;4.87;;;;;;;;;;4962174;29;20519;-80
2024/01/27 11:28:15;;;;;;;23.20;6.13;;;;;;;;;;4962416;28;20423;-79
2024/01/27 11:30:48;;;;;;;11.57;5.07;;;;;;;;;;4961885;28;20437;-80
2024/01/27 11:33:14;;;;;;;12.97;5.17;;;;;;;;;;4959533;28;20440;-80
2024/01/27 11:35:40;;;;;;;11.30;4.60;;;;;;;;;;4972590;29;20492;-80
2024/01/27 11:38:06;;;;;;;18.33;6.07;;;;;;;;;;4972369;29;20460;-80
2024/01/27 11:40:33;;;;;;;12.23;5.90;;;;;;;;;;4976346;28;20479;-79
2024/01/27 11:42:59;;;;;;;15.00;5.17;;;;;;;;;;4977249;28;20417;-80
2024/01/27 11:45:27;;;;;;;18.03;7.20;;;;;;;;;;4975487;29;20452;-79
2024/01/27 11:47:53;;;;;;;12.27;6.10;;;;;;;;;;4974619;29;20493;-80
2024/01/27 11:50:20;;;;;;;12.10;6.40;;;;;;;;;;4976270;29;20427;-80
2024/01/27 11:52:46;;;;;;;10.10;4.60;;;;;;;;;;4974747;28;20469;-80
2024/01/27 11:55:12;;;;;;;11.47;4.80;;;;;;;;;;4975224;28;20463;-80
2024/01/27 11:57:38;;;;;;;11.40;5.53;;;;;;;;;;4975308;28;20409;-80
2024/01/27 12:00:05;;;;;;;12.90;5.97;;;;;;;;;;4976044;29;20459;-79
2024/01/27 12:02:31;;;;;;;9.63;5.07;;;;;;;;;;4977293;28;20473;-80
2024/01/27 12:04:57;;;;;;;23.77;5.53;;;;;;;;;;4978851;28;20508;-80
2024/01/27 12:07:23;;;;;;;16.10;5.13;;;;;;;;;;4977047;28;20417;-80
2024/01/27 12:09:50;;;;;;;15.83;5.07;;;;;;;;;;4977404;29;20788;-80
2024/01/27 12:12:16;;;;;;;10.23;4.77;;;;;;;;;;4977100;28;20460;-80
2024/01/27 12:14:45;;;;;;;10.93;5.43;;;;;;;;;;4991007;23;20938;-73
2024/01/27 12:17:11;;;;;;;12.10;5.33;;;;;;;;;;4953591;29;20480;-74
2024/01/27 12:19:38;;;;;;;9.20;4.70;;;;;;;;;;4955061;29;20441;-74
2024/01/27 12:22:04;;;;;;;14.83;5.40;;;;;;;;;;4955230;29;20405;-74
2024/01/27 12:24:32;;;;;;;8.13;4.63;;;;;;;;;;4955167;29;20788;-74
2024/01/27 12:26:58;;;;;;;16.30;5.60;;;;;;;;;;4955083;28;20420;-74
2024/01/27 12:29:24;;;;;;;15.63;5.03;;;;;;;;;;4955335;29;20436;-74
2024/01/27 12:31:50;;;;;;;11.60;5.00;;;;;;;;;;4955032;29;20472;-74
2024/01/27 12:34:16;;;;;;;21.57;6.20;;;;;;;;;;4955087;29;20413;-74
2024/01/27 12:36:42;;;;;;;14.97;5.10;;;;;;;;;;4955322;29;20490;-74
2024/01/27 12:39:09;;;;;;;9.03;4.40;;;;;;;;;;4954810;29;20420;-74
2024/01/27 12:41:35;;;;;;;12.47;5.57;;;;;;;;;;4955171;29;20432;-75
2024/01/27 12:44:01;;;;;;;14.23;5.40;;;;;;;;;;4954373;28;20500;-74
2024/01/27 12:46:27;;;;;;;29.80;6.63;;;;;;;;;;4954602;29;20420;-74
2024/01/27 12:48:53;;;;;;;14.03;5.00;;;;;;;;;;4954757;29;20792;-74
2024/01/27 12:51:20;;;;;;;20.57;5.40;;;;;;;;;;4954753;29;20484;-75
2024/01/27 12:53:46;;;;;;;16.80;5.40;;;;;;;;;;4955754;29;20413;-74
2024/01/27 12:56:12;;;;;;;7.20;4.60;;;;;;;;;;4959093;29;21055;-73
2024/01/27 12:58:39;;;;;;;16.03;5.43;;;;;;;;;;4955286;29;20768;-74
2024/01/27 13:01:06;;;;;;;15.23;4.50;;;;;;;;;;4955484;28;20425;-75
2024/01/27 13:03:32;;;;;;;11.90;4.97;;;;;;;;;;4954568;29;20510;-74
2024/01/27 13:05:58;;;;;;;10.93;4.80;;;;;;;;;;4954814;29;20429;-74
2024/01/27 13:08:24;;;;;;;22.07;4.90;;;;;;;;;;4954348;29;20844;-74
2024/01/27 13:10:50;;;;;;;12.83;4.67;;;;;;;;;;4953483;29;20452;-74
2024/01/27 13:13:16;;;;;;;12.93;4.60;;;;;;;;;;4953229;29;20421;-74
2024/01/27 13:15:43;;;;;;;12.40;5.00;;;;;;;;;;4954439;29;20667;-74
2024/01/27 13:18:10;;;;;;;14.43;5.93;;;;;;;;;;4954085;28;20939;-74
2024/01/27 13:20:36;;;;;;;15.70;5.27;;;;;;;;;;4954560;28;20405;-74
2024/01/27 13:23:02;;;;;;;18.33;6.00;;;;;;;;;;4954176;29;20427;-74
2024/01/27 13:25:28;;;;;;;11.50;4.93;;;;;;;;;;4954121;29;20440;-74
2024/01/27 13:27:54;;;;;;;13.93;4.60;;;;;;;;;;4954581;29;20416;-74
2024/01/27 13:30:20;;;;;;;11.30;5.47;;;;;;;;;;4954544;28;20780;-75
2024/01/27 13:32:46;;;;;;;7.20;4.77;;;;;;;;;;4954213;29;20460;-75
2024/01/27 13:35:12;;;;;;;10.33;4.93;;;;;;;;;;4954151;29;20424;-74
2024/01/27 13:37:39;;;;;;;15.03;5.40;;;;;;;;;;4952764;29;20419;-74
2024/01/27 13:40:07;;;;;;;19.47;5.90;;;;;;;;;;4954293;28;20832;-74
2024/01/27 13:42:33;;;;;;;12.73;5.53;;;;;;;;;;4954081;28;20424;-74
2024/01/27 13:44:59;;;;;;;15.57;5.93;;;;;;;;;;4954225;29;20464;-73
2024/01/27 13:47:25;;;;;;;13.23;5.30;;;;;;;;;;4954106;29;20487;-73
2024/01/27 13:49:51;;;;;;;20.20;6.30;;;;;;;;;;4954235;29;20499;-74
2024/01/27 13:52:17;;;;;;;12.77;5.07;;;;;;;;;;4953969;29;20808;-74
2024/01/27 13:54:43;;;;;;;13.90;4.23;;;;;;;;;;4952961;29;20455;-74
2024/01/27 13:57:13;;;;;;;10.40;4.97;;;;;;;;;;4953325;28;20512;-73
2024/01/27 13:59:39;;;;;;;9.50;5.30;;;;;;;;;;4954021;29;20408;-73
2024/01/27 14:02:05;;;;;;;14.07;5.50;;;;;;;;;;4953914;29;20439;-74
2024/01/27 14:04:31;;;;;;;11.10;5.10;;;;;;;;;;4953596;29;20432;-74
2024/01/27 14:06:57;;;;;;;17.13;5.43;;;;;;;;;;4953532;28;20497;-73
2024/01/27 14:09:24;;;;;;;12.87;5.00;;;;;;;;;;4953962;29;20417;-73
2024/01/27 14:11:50;;;;;;;12.47;4.60;;;;;;;;;;4953498;29;20527;-73
2024/01/27 14:14:16;;;;;;;8.87;4.97;;;;;;;;;;4953475;29;20416;-74
2024/01/27 14:16:47;;;;;;;14.60;4.97;;;;;;;;;;4953659;28;20412;-73
2024/01/27 14:19:13;;;;;;;15.60;6.10;;;;;;;;;;4953689;29;20496;-73
2024/01/27 14:21:39;;;;;;;11.50;5.13;;;;;;;;;;4954064;29;20444;-74
2024/01/27 14:24:07;;;;;;;16.67;4.10;;;;;;;;;;4953573;29;20424;-73
2024/01/27 14:26:33;;;;;;;19.90;5.30;;;;;;;;;;4952446;29;20416;-73
2024/01/27 14:28:59;;;;;;;9.43;5.90;;;;;;;;;;4953590;29;20424;-73
2024/01/27 14:31:25;;;;;;;12.27;6.00;;;;;;;;;;4953838;29;20463;-74
2024/01/27 14:33:51;;;;;;;13.53;6.33;;;;;;;;;;4953639;29;20409;-73
2024/01/27 14:36:17;;;;;;;17.70;6.67;;;;;;;;;;4953448;29;20432;-73
2024/01/27 14:38:43;;;;;;;15.00;5.27;;;;;;;;;;4953358;29;20440;-73
2024/01/27 14:41:11;;;;;;;8.30;4.87;;;;;;;;;;4953364;29;20896;-73
2024/01/27 14:43:38;;;;;;;10.10;5.90;;;;;;;;;;4953305;28;20416;-74
2024/01/27 14:46:04;;;;;;;10.03;3.90;;;;;;;;;;4953105;28;20441;-73
2024/01/27 14:48:30;;;;;;;10.53;3.50;;;;;;;;;;4952973;29;20424;-73
2024/01/27 14:50:59;;;;;;;11.10;3.93;;;;;;;;;;4953278;29;20408;-73
2024/01/27 14:53:26;;;;;;;5.67;3.50;;;;;;;;;;4953123;29;20464;-74
2024/01/27 14:55:52;;;;;;;7.57;3.70;;;;;;;;;;4953037;29;20932;-74
2024/01/27 14:58:18;;;;;;;12.63;3.90;;;;;;;;;;4953333;29;20420;-73
2024/01/27 15:00:44;;;;;;;6.00;3.00;;;;;;;;;;4953573;29;20949;-73
2024/01/27 15:03:11;;;;;;;10.87;3.70;;;;;;;;;;4954802;29;20507;-74
2024/01/27 15:05:40;;;;;;;9.53;3.40;;;;;;;;;;4954604;28;20495;-73
2024/01/27 15:08:06;;;;;;;8.50;2.97;;;;;;;;;;4954722;28;20417;-73
2024/01/27 15:10:32;;;;;;;7.90;2.77;;;;;;;;;;4957081;29;20508;-74
2024/01/27 15:12:59;;;;;;;9.33;3.43;;;;;;;;;;4956883;28;21031;-74
2024/01/27 15:15:25;;;;;;;10.50;3.73;;;;;;;;;;4956512;28;20451;-73
2024/01/27 15:17:54;;;;;;;10.60;3.33;;;;;;;;;;4956410;29;20417;-74
2024/01/27 15:20:20;;;;;;;5.60;3.13;;;;;;;;;;4956487;28;20503;-74
2024/01/27 15:22:46;;;;;;;5.17;3.40;;;;;;;;;;4956730;29;20508;-74
2024/01/27 15:25:12;;;;;;;11.17;3.57;;;;;;;;;;4956308;29;20464;-74
2024/01/27 15:27:38;;;;;;;10.73;3.47;;;;;;;;;;4956091;29;20412;-74
2024/01/27 15:30:04;;;;;;;8.60;3.70;;;;;;;;;;4956320;29;20420;-74
2024/01/27 15:32:31;;;;;;;14.70;4.17;;;;;;;;;;4956499;29;20619;-73
2024/01/27 15:34:57;;;;;;;9.00;4.00;;;;;;;;;;4956049;28;20435;-74
2024/01/27 15:37:23;;;;;;;8.13;3.80;;;;;;;;;;4956101;29;20413;-74
2024/01/27 15:39:49;;;;;;;17.23;3.87;;;;;;;;;;4956338;29;20436;-74
2024/01/27 15:42:15;;;;;;;8.97;4.30;;;;;;;;;;4956168;28;20409;-74
2024/01/27 15:44:41;;;;;;;9.83;4.83;;;;;;;;;;4954706;29;20451;-74
2024/01/27 15:47:08;;;;;;;10.93;3.40;;;;;;;;;;4956060;29;20444;-73
2024/01/27 15:49:34;;;;;;;9.93;3.60;;;;;;;;;;4956083;28;20413;-74
2024/01/27 15:52:00;;;;;;;8.87;4.13;;;;;;;;;;4956051;29;20457;-74
2024/01/27 15:54:26;;;;;;;8.57;3.33;;;;;;;;;;4955887;28;20800;-74
2024/01/27 15:56:52;;;;;;;12.47;4.93;;;;;;;;;;4955999;29;20492;-75
2024/01/27 15:59:18;;;;;;;7.93;3.70;;;;;;;;;;4955730;29;20412;-74
2024/01/27 16:01:44;;;;;;;6.40;3.67;;;;;;;;;;4956031;29;20981;-74
2024/01/27 16:04:10;;;;;;;9.53;4.13;;;;;;;;;;4955608;29;20421;-74
2024/01/27 16:06:36;;;;;;;18.33;4.63;;;;;;;;;;4956042;28;20413;-75
2024/01/27 16:09:03;;;;;;;13.63;4.50;;;;;;;;;;4955499;29;20571;-74
2024/01/27 16:11:29;;;;;;;30.90;5.30;;;;;;;;;;4955743;28;20487;-74
2024/01/27 16:13:55;;;;;;;8.13;4.10;;;;;;;;;;4955491;29;20893;-74
2024/01/27 16:16:24;;;;;;;11.13;4.00;;;;;;;;;;4955261;29;20830;-74
2024/01/27 16:18:50;;;;;;;12.33;5.07;;;;;;;;;;4954916;28;20413;-74
2024/01/27 16:21:16;;;;;;;9.07;4.63;;;;;;;;;;4955413;29;20420;-74
2024/01/27 16:23:42;;;;;;;8.33;3.83;;;;;;;;;;4955165;29;20413;-74
2024/01/27 16:26:08;;;;;;;11.97;4.17;;;;;;;;;;4954823;29;20978;-75
2024/01/27 16:28:37;;;;;;;7.77;4.43;;;;;;;;;;4954980;28;20471;-74
2024/01/27 16:31:03;;;;;;;12.10;4.80;;;;;;;;;;4954952;28;20417;-73
2024/01/27 16:33:29;;;;;;;10.80;4.83;;;;;;;;;;4955006;29;20416;-73
2024/01/27 16:35:55;;;;;;;22.00;4.67;;;;;;;;;;4954786;29;20421;-77
2024/01/27 16:38:21;;;;;;;10.13;5.00;;;;;;;;;;4954984;29;20435;-74
2024/01/27 16:40:47;;;;;;;14.50;5.20;;;;;;;;;;4955070;29;20441;-74
2024/01/27 16:43:13;;;;;;;16.70;5.60;;;;;;;;;;4955311;29;20422;-74
2024/01/27 16:45:39;;;;;;;13.27;5.40;;;;;;;;;;4956549;29;20433;-73
2024/01/27 16:48:05;;;;;;;15.03;5.27;;;;;;;;;;4955848;29;20416;-73
2024/01/27 16:50:31;;;;;;;8.63;5.10;;;;;;;;;;4956459;29;20453;-74
2024/01/27 16:52:57;;;;;;;15.27;6.87;;;;;;;;;;4954634;29;20511;-73
2024/01/27 16:55:24;;;;;;;13.43;6.13;;;;;;;;;;4955055;29;20444;-73
2024/01/27 16:57:50;;;;;;;19.33;7.93;;;;;;;;;;4954677;28;20547;-74
2024/01/27 17:00:16;;;;;;;15.40;5.53;;;;;;;;;;4954877;29;20445;-74
2024/01/27 17:02:42;;;;;;;17.20;6.10;;;;;;;;;;4955019;29;20823;-74
2024/01/27 17:05:08;;;;;;;18.00;7.40;;;;;;;;;;4939272;29;20540;-73
2024/01/27 17:07:34;;;;;;;16.40;7.20;;;;;;;;;;4934008;29;20795;-74
2024/01/27 17:10:01;;;;;;;21.57;8.37;;;;;;;;;;4935260;29;20918;-73
2024/01/27 17:12:28;;;;;;;11.73;5.80;;;;;;;;;;4934994;29;20476;-73
2024/01/27 17:14:54;;;;;;;15.27;6.53;;;;;;;;;;4935285;29;20453;-73
2024/01/27 17:17:20;;;;;;;30.40;10.00;;;;;;;;;;4935494;29;20410;-74
2024/01/27 17:19:46;;;;;;;18.00;8.40;;;;;;;;;;4935444;29;20410;-74
2024/01/27 17:22:11;;;;;;;16.27;7.40;;;;;;;;;;4935204;29;20414;-74
2024/01/27 17:24:39;;;;;;;15.37;7.17;;;;;;;;;;4943107;29;20493;-73
2024/01/27 17:27:05;;;;;;;24.23;6.30;;;;;;;;;;4950519;29;21084;-74
2024/01/27 17:29:32;;;;;;;32.17;6.67;;;;;;;;;;4947023;29;20429;-74
2024/01/27 17:31:59;;;;;;;14.77;7.10;;;;;;;;;;4954060;28;20989;-75
2024/01/27 17:34:25;;;;;;;13.60;6.60;;;;;;;;;;4954640;29;20433;-74
2024/01/27 17:36:51;;;;;;;19.80;7.57;;;;;;;;;;4954304;29;20448;-74
2024/01/27 17:39:17;;;;;;;19.63;8.70;;;;;;;;;;4953130;29;20802;-74
2024/01/27 17:41:43;;;;;;;16.80;7.27;;;;;;;;;;4954401;29;20504;-73
2024/01/27 17:44:09;;;;;;;20.23;7.93;;;;;;;;;;4954147;29;20417;-74
2024/01/27 17:46:35;;;;;;;26.57;8.67;;;;;;;;;;4953634;29;20511;-74
2024/01/27 17:49:02;;;;;;;15.30;8.33;;;;;;;;;;4953988;29;20518;-74
2024/01/27 17:51:28;;;;;;;17.17;7.40;;;;;;;;;;4954227;28;20963;-74
2024/01/27 17:53:54;;;;;;;25.60;9.20;;;;;;;;;;4954237;29;20499;-73
2024/01/27 17:56:21;;;;;;;24.27;11.77;;;;;;;;;;4954089;29;20429;-74
2024/01/27 17:58:47;;;;;;;27.97;10.00;;;;;;;;;;4953948;28;20417;-74
2024/01/27 18:01:13;;;;;;;27.30;8.90;;;;;;;;;;4954116;29;20412;-75
2024/01/27 18:03:39;;;;;;;25.47;9.90;;;;;;;;;;4954221;29;20416;-75
2024/01/27 18:06:05;;;;;;;22.77;10.07;;;;;;;;;;4953839;29;20440;-75
2024/01/27 18:08:31;;;;;;;19.97;9.77;;;;;;;;;;4953658;29;20477;-75
2024/01/27 18:10:57;;;;;;;19.50;10.63;;;;;;;;;;4953598;29;20413;-74
2024/01/27 18:13:23;;;;;;;17.77;9.33;;;;;;;;;;4952921;29;20472;-74
2024/01/27 18:15:49;;;;;;;17.83;9.70;;;;;;;;;;4968539;23;20605;-74
2024/01/27 18:18:15;;;;;;;20.23;10.30;;;;;;;;;;4955808;29;20413;-73
2024/01/27 18:20:41;;;;;;;23.00;10.40;;;;;;;;;;4955397;29;20431;-74
2024/01/27 18:23:07;;;;;;;18.33;9.70;;;;;;;;;;4954948;29;20888;-73
2024/01/27 18:25:33;;;;;;;14.47;8.83;;;;;;;;;;4953879;28;20539;-74
2024/01/27 18:27:59;;;;;;;21.47;9.17;;;;;;;;;;4955206;29;20955;-74
2024/01/27 18:30:25;;;;;;;24.57;10.30;;;;;;;;;;4956808;28;20409;-74
2024/01/27 18:32:51;;;;;;;24.90;10.13;;;;;;;;;;4954822;29;20469;-73
2024/01/27 18:35:18;;;;;;;24.53;11.60;;;;;;;;;;4955101;28;20455;-75
2024/01/27 18:37:44;;;;;;;22.77;12.23;;;;;;;;;;4956729;28;20444;-75
2024/01/27 18:40:10;;;;;;;27.80;11.30;;;;;;;;;;4958749;29;20420;-74
2024/01/27 18:42:36;;;;;;;20.80;11.37;;;;;;;;;;4962403;28;20900;-75
2024/01/27 18:45:03;;;;;;;23.90;10.13;;;;;;;;;;4960583;28;20437;-75
2024/01/27 18:47:29;;;;;;;19.50;10.93;;;;;;;;;;4963069;28;20806;-75
2024/01/27 18:49:55;;;;;;;24.90;11.00;;;;;;;;;;4961313;29;20962;-74
2024/01/27 18:52:21;;;;;;;26.60;11.30;;;;;;;;;;4963347;29;20475;-74
2024/01/27 18:54:47;;;;;;;21.67;10.27;;;;;;;;;;4959721;28;20523;-75
2024/01/27 18:57:13;;;;;;;24.73;11.50;;;;;;;;;;4957897;29;20467;-75
2024/01/27 18:59:41;;;;;;;28.67;13.13;;;;;;;;;;4958053;29;20408;-74
2024/01/27 19:02:09;;;;;;;30.03;12.40;;;;;;;;;;4957064;29;20416;-74
2024/01/27 19:04:35;;;;;;;29.30;12.10;;;;;;;;;;4958252;28;20970;-73
2024/01/27 19:07:01;;;;;;;48.63;20.20;;;;;;;;;;4957656;29;20417;-74
2024/01/27 19:09:27;;;;;;;44.07;16.40;;;;;;;;;;4958225;29;20413;-72
2024/01/27 19:11:53;;;;;;;34.87;14.23;;;;;;;;;;4958037;29;20460;-73
2024/01/27 19:14:20;;;;;;;45.43;14.17;;;;;;;;;;4957881;28;20932;-74
2024/01/27 19:16:46;;;;;;;26.97;13.40;;;;;;;;;;4958420;28;20543;-73
2024/01/27 19:19:14;;;;;;;37.70;14.63;;;;;;;;;;4957700;29;20471;-74
2024/01/27 19:21:40;;;;;;;38.53;15.03;;;;;;;;;;4958320;28;20567;-74
2024/01/27 19:24:06;;;;;;;31.03;15.47;;;;;;;;;;4960003;29;20416;-73
2024/01/27 19:26:32;;;;;;;33.57;15.50;;;;;;;;;;4961654;28;20464;-75
2024/01/27 19:28:58;;;;;;;42.70;16.27;;;;;;;;;;4958750;29;20602;-73
2024/01/27 19:31:25;;;;;;;39.97;16.67;;;;;;;;;;4957723;29;20478;-75
2024/01/27 19:33:50;;;;;;;36.53;15.93;;;;;;;;;;4960405;28;20518;-74
2024/01/27 19:36:19;;;;;;;48.63;17.20;;;;;;;;;;4961011;29;20500;-74
2024/01/27 19:38:46;;;;;;;37.97;16.43;;;;;;;;;;4958560;29;20471;-75
2024/01/27 19:41:13;;;;;;;37.67;16.63;;;;;;;;;;4947295;29;20508;-74
2024/01/27 19:43:40;;;;;;;41.60;16.23;;;;;;;;;;4938949;29;20413;-73
2024/01/27 19:46:06;;;;;;;30.40;13.80;;;;;;;;;;4939095;29;20471;-73
2024/01/27 19:48:32;;;;;;;37.00;14.93;;;;;;;;;;4950696;29;20412;-73
2024/01/27 19:50:58;;;;;;;32.00;14.77;;;;;;;;;;4943214;29;20431;-74
2024/01/27 19:53:25;;;;;;;33.43;15.17;;;;;;;;;;4956298;28;20971;-75
2024/01/27 19:55:51;;;;;;;43.03;17.60;;;;;;;;;;4957356;28;20440;-74
2024/01/27 19:58:17;;;;;;;33.73;14.70;;;;;;;;;;4956243;29;20422;-74
2024/01/27 20:00:43;;;;;;;36.07;14.73;;;;;;;;;;4948156;29;20444;-75
2024/01/27 20:03:09;;;;;;;32.10;14.50;;;;;;;;;;4955617;29;20416;-76
2024/01/27 20:05:35;;;;;;;37.63;15.77;;;;;;;;;;4955648;28;20815;-75
2024/01/27 20:08:01;;;;;;;31.17;14.97;;;;;;;;;;4957157;29;20784;-74
2024/01/27 20:10:27;;;;;;;31.33;14.90;;;;;;;;;;4956337;29;20471;-75
2024/01/27 20:12:56;;;;;;;27.30;11.80;;;;;;;;;;4956157;29;20567;-75
2024/01/27 20:15:23;;;;;;;31.17;13.43;;;;;;;;;;4956766;28;20970;-73
2024/01/27 20:17:51;;;;;;;30.63;11.37;;;;;;;;;;4956566;28;20420;-75
2024/01/27 20:20:18;;;;;;;40.10;13.10;;;;;;;;;;4957163;28;20408;-75
2024/01/27 20:22:44;;;;;;;31.63;12.33;;;;;;;;;;4956643;29;20424;-75